Terminal Aerodrome Forecast
Issued by NWS

Home | Current Version | Previous Version | Graphics & Text | Print | Product List | Glossary On
Versions: 1 2 3 4 5 6 7 8 9 10 11 12 13 14 15 16 17 18 19 20 21 22 23 24 25 26 27 28 29 30
248
FTUS43 KLOT 291139
TAFDPA
TAF
KDPA 291139Z 2912/3012 04004KT 6SM BR BKN008
     FM291300 05006KT P6SM BKN020
     FM291600 07008KT 6SM -SHRA VCTS BKN035CB
      TEMPO 2917/2921 3SM -SHRA OVC030
     FM292100 05009KT P6SM VCSH BKN040
     FM300200 04006KT 6SM BR VCSH BKN040=

USA.gov is the U.S. government's official web portal to all federal, state and local government web resources and services.